WIF27A ENBO-ENSK
Flight info
| Callsign | WIF27A |
|---|---|
| Flight time | 0h 9m |
| Altitude | 15000 |
| Route | IBVIS DCT LOSSE |
| Aircraft | DH8B/M-SDFGR/S |
Departure
| Time | 2026-05-04 17:25 |
|---|---|
| Airport | Bodø Airport (ENBO) |
Arrival
| Time | 2026-05-04 17:35 |
|---|---|
| Airport | Stokmarknes Airport, Skagen (ENSK) |
| Time | Latitude | Longitude | Altitude | Speed | Heading |
|---|---|---|---|---|---|
| 2026-05-04 17:19 | 67.27239 | 14.36528 | 42 ft | 0 kts | 29° |
| 2026-05-04 17:23 | 67.27223 | 14.36481 | 41 ft | 9 kts | 207° |
| 2026-05-04 17:24 | 67.27153 | 14.36405 | 43 ft | 13 kts | 183° |
| 2026-05-04 17:24 | 67.26903 | 14.36301 | 35 ft | 27 kts | 258° |
| 2026-05-04 17:25 | 67.26779 | 14.34820 | 30 ft | 127 kts | 258° |
| 2026-05-04 17:25 | 67.26583 | 14.29452 | 1045 ft | 173 kts | 290° |
| 2026-05-04 17:26 | 67.28611 | 14.26378 | 2387 ft | 184 kts | 359° |
| 2026-05-04 17:26 | 67.32370 | 14.28932 | 4678 ft | 189 kts | 9° |
| 2026-05-04 17:27 | 67.40494 | 14.34415 | 9442 ft | 203 kts | 13° |
| 2026-05-04 17:27 | 67.52253 | 14.42032 | 14590 ft | 264 kts | 12° |
| 2026-05-04 17:28 | 67.67397 | 14.52149 | 14564 ft | 269 kts | 12° |
| 2026-05-04 17:29 | 67.89299 | 14.67074 | 14547 ft | 273 kts | 13° |
| 2026-05-04 17:29 | 68.11292 | 14.82196 | 14547 ft | 273 kts | 7° |
| 2026-05-04 17:30 | 68.23959 | 14.89029 | 14092 ft | 274 kts | 11° |
| 2026-05-04 17:31 | 68.27667 | 14.91080 | 13068 ft | 268 kts | 9° |
| 2026-05-04 17:31 | 68.33056 | 14.94029 | 11440 ft | 260 kts | 9° |
| 2026-05-04 17:32 | 68.36553 | 14.95991 | 10365 ft | 254 kts | 9° |
| 2026-05-04 17:33 | 68.51353 | 15.04194 | 2713 ft | 160 kts | 8° |
| 2026-05-04 17:33 | 68.54624 | 15.06027 | 1270 ft | 157 kts | 8° |
| 2026-05-04 17:34 | 68.57858 | 15.07129 | 658 ft | 134 kts | 330° |
| 2026-05-04 17:34 | 68.58117 | 15.05040 | 395 ft | 133 kts | 258° |
| 2026-05-04 17:35 | 68.58081 | 15.02059 | 20 ft | 16 kts | 92° |
| 2026-05-04 17:35 | 68.58073 | 15.02824 | 17 ft | 22 kts | 91° |
| 2026-05-04 17:35 | 68.58036 | 15.03051 | 19 ft | 11 kts | 176° |
| 2026-05-04 17:36 | 68.57985 | 15.03068 | 19 ft | 7 kts | 93° |
| 2026-05-04 17:36 | 68.57985 | 15.03086 | 18 ft | 0 kts | 90° |